createdAt,value
2023-05-08T00:02:11.904Z,5.37
2023-05-08T00:05:14.626Z,4.22
2023-05-08T00:08:18.912Z,5.15
2023-05-08T00:11:21.557Z,4.53
2023-05-08T00:14:23.711Z,4.47
2023-05-08T00:17:26.514Z,5.03
2023-05-08T00:20:28.969Z,5.18
2023-05-08T00:23:31.450Z,4.73
2023-05-08T00:26:33.756Z,5.25
2023-05-08T00:29:36.393Z,5.18
2023-05-08T00:32:38.603Z,4.12
2023-05-08T00:35:42.890Z,4.37
2023-05-08T00:38:45.094Z,5.03
2023-05-08T00:41:47.735Z,5.57
2023-05-08T00:44:49.948Z,4.20
2023-05-08T00:47:52.693Z,3.90
2023-05-08T00:50:55.819Z,4.35
2023-05-08T00:53:59.666Z,5.30
2023-05-08T01:00:06.254Z,4.43
2023-05-08T01:03:09.445Z,5.00
2023-05-08T01:06:12.264Z,4.50
2023-05-08T01:09:14.478Z,4.60
2023-05-08T01:12:30.670Z,5.10
2023-05-08T01:15:50.902Z,4.97
2023-05-08T01:19:16.470Z,4.97
2023-05-08T01:22:43.986Z,4.72
2023-05-08T01:26:17.207Z,5.90
2023-05-08T01:29:57.089Z,5.60
2023-05-08T01:33:14.313Z,4.18
2023-05-08T01:36:46.743Z,3.95
2023-05-08T01:39:55.264Z,3.80
2023-05-08T01:43:08.074Z,4.35
2023-05-08T01:46:16.819Z,4.57
2023-05-08T01:49:26.302Z,4.47
2023-05-08T01:52:35.400Z,4.10
2023-05-08T01:55:40.244Z,4.43
2023-05-08T01:58:44.554Z,4.37
2023-05-08T02:01:48.183Z,4.12
2023-05-08T02:04:53.580Z,4.60
2023-05-08T02:07:57.133Z,4.28
2023-05-08T02:11:00.929Z,4.50
2023-05-08T02:14:04.880Z,4.30
2023-05-08T02:17:10.715Z,4.10
2023-05-08T02:20:15.325Z,3.53
2023-05-08T02:23:19.478Z,3.72
2023-05-08T02:26:23.355Z,5.18
2023-05-08T02:29:27.274Z,4.43
2023-05-08T02:32:31.017Z,4.28
2023-05-08T02:35:35.332Z,4.57
2023-05-08T02:38:42.050Z,4.80
2023-05-08T02:41:45.264Z,4.90
2023-05-08T02:44:47.566Z,4.68
2023-05-08T02:48:14.800Z,4.72
2023-05-08T02:51:39.601Z,5.10
2023-05-08T02:55:15.005Z,5.70
2023-05-08T02:58:24.925Z,4.75
2023-05-08T03:01:42.130Z,5.03
2023-05-08T03:04:49.778Z,5.28
2023-05-08T03:07:55.795Z,5.05
2023-05-08T03:11:01.747Z,5.15
2023-05-08T03:14:09.877Z,5.72
2023-05-08T03:17:16.434Z,6.43
2023-05-08T03:20:21.200Z,5.05
2023-05-08T03:23:26.521Z,5.37
2023-05-08T03:26:29.859Z,4.85
2023-05-08T03:29:33.907Z,5.50
2023-05-08T03:32:37.705Z,5.43
2023-05-08T03:35:40.192Z,5.78
2023-05-08T03:38:43.402Z,6.05
2023-05-08T03:41:45.968Z,4.93
2023-05-08T03:44:51.419Z,5.82
2023-05-08T03:47:54.186Z,5.93
2023-05-08T03:50:58.580Z,5.75
2023-05-08T03:54:01.028Z,6.10
2023-05-08T03:57:03.923Z,5.67
2023-05-08T04:00:19.472Z,5.55
2023-05-08T04:03:33.262Z,5.80
2023-05-08T04:10:06.758Z,5.57
2023-05-08T04:13:14.161Z,3.55
2023-05-08T04:16:21.900Z,3.10
2023-05-08T04:19:26.833Z,3.40
2023-05-08T04:22:32.409Z,2.92
2023-05-08T04:25:38.153Z,2.50
2023-05-08T04:28:41.689Z,2.78
2023-05-08T04:31:44.808Z,2.95
2023-05-08T04:34:47.461Z,2.45
2023-05-08T04:37:49.700Z,2.72
2023-05-08T04:40:52.496Z,2.77
2023-05-08T04:43:54.999Z,2.50
2023-05-08T04:46:57.563Z,3.00
2023-05-08T04:50:02.698Z,3.05
2023-05-08T04:53:06.858Z,2.20
2023-05-08T04:56:09.160Z,2.22
2023-05-08T04:59:12.486Z,2.30
2023-05-08T05:02:15.497Z,2.28
2023-05-08T05:05:18.932Z,2.33
2023-05-08T05:08:21.865Z,2.35
2023-05-08T05:11:25.060Z,2.37
2023-05-08T05:14:28.065Z,2.20
2023-05-08T05:17:31.736Z,1.92
2023-05-08T05:20:34.601Z,2.78
2023-05-08T05:23:37.165Z,2.00
2023-05-08T05:26:39.514Z,2.28
2023-05-08T05:29:43.356Z,2.37
2023-05-08T05:32:46.063Z,2.20
2023-05-08T05:35:48.871Z,2.42
2023-05-08T05:38:51.153Z,2.33
2023-05-08T05:41:53.910Z,2.37
2023-05-08T05:44:57.061Z,1.90
2023-05-08T05:51:03.562Z,2.30
2023-05-08T05:54:06.441Z,2.40
2023-05-08T06:00:13.954Z,2.73
2023-05-08T06:03:16.374Z,2.42
2023-05-08T06:06:19.121Z,2.33
2023-05-08T06:12:28.517Z,2.12
2023-05-08T06:15:31.529Z,1.75
2023-05-08T06:18:44.983Z,1.97
2023-05-08T06:21:47.323Z,1.77
2023-05-08T06:24:53.433Z,2.25
2023-05-08T06:27:56.283Z,2.00
2023-05-08T06:30:59.131Z,2.65
2023-05-08T06:34:01.602Z,1.83
2023-05-08T06:37:04.336Z,2.17
2023-05-08T06:43:13.607Z,1.90
2023-05-08T06:46:16.347Z,2.60
2023-05-08T06:49:18.959Z,2.17
2023-05-08T06:52:21.954Z,1.80
2023-05-08T06:55:24.463Z,1.95
2023-05-08T06:58:26.692Z,1.80
2023-05-08T07:01:29.373Z,2.08
2023-05-08T07:04:32.275Z,2.22
2023-05-08T07:07:34.833Z,1.48
2023-05-08T07:10:37.066Z,2.15
2023-05-08T07:13:39.549Z,1.60
2023-05-08T07:16:41.898Z,1.80
2023-05-08T07:19:44.419Z,1.63
2023-05-08T07:22:46.618Z,1.87
2023-05-08T07:25:49.888Z,1.90
2023-05-08T07:28:54.156Z,1.92
2023-05-08T07:31:56.737Z,2.20
2023-05-08T07:34:58.944Z,1.73
2023-05-08T07:38:01.728Z,1.80
2023-05-08T07:41:05.391Z,1.65
2023-05-08T07:44:09.621Z,1.50
2023-05-08T07:47:12.580Z,1.80
2023-05-08T07:50:15.759Z,1.60
2023-05-08T07:53:18.117Z,1.75
2023-05-08T07:56:23.055Z,1.90
2023-05-08T07:59:25.537Z,1.55
2023-05-08T08:02:29.300Z,1.80
2023-05-08T08:05:32.017Z,1.62
2023-05-08T08:08:34.220Z,1.92
2023-05-08T08:11:36.706Z,1.70
2023-05-08T08:14:38.993Z,1.67
2023-05-08T08:17:41.808Z,1.77
2023-05-08T08:20:44.833Z,1.83
2023-05-08T08:26:50.360Z,1.70
2023-05-08T08:30:04.536Z,2.15
2023-05-08T08:33:17.567Z,2.12
2023-05-08T08:36:21.553Z,1.85
2023-05-08T08:39:23.874Z,2.20
2023-05-08T08:42:26.779Z,1.60
2023-05-08T08:45:29.451Z,1.75
2023-05-08T08:48:32.219Z,2.03
2023-05-08T08:51:50.292Z,2.12
2023-05-08T08:54:55.317Z,1.90
2023-05-08T08:58:23.039Z,2.42
2023-05-08T09:01:29.244Z,1.95
2023-05-08T09:04:32.261Z,1.50
2023-05-08T09:07:35.768Z,1.80
2023-05-08T09:10:38.014Z,1.25
2023-05-08T09:13:41.113Z,3.33
2023-05-08T09:16:43.796Z,1.80
2023-05-08T09:19:49.273Z,1.92
2023-05-08T09:22:52.851Z,3.05
2023-05-08T09:25:55.401Z,1.00
2023-05-08T09:29:18.627Z,0.93
2023-05-08T09:32:21.388Z,1.10
2023-05-08T09:35:36.478Z,1.90
2023-05-08T09:38:40.729Z,0.65
2023-05-08T09:41:57.760Z,0.90
2023-05-08T09:45:00.297Z,0.80
2023-05-08T09:48:02.540Z,0.93
2023-05-08T09:51:08.273Z,0.50
2023-05-08T09:54:18.061Z,0.70
2023-05-08T09:57:21.469Z,0.80
2023-05-08T10:00:25.775Z,0.88
2023-05-08T10:03:48.387Z,0.70
2023-05-08T10:07:00.973Z,0.67
2023-05-08T10:10:05.884Z,0.70
2023-05-08T10:13:08.226Z,0.60
2023-05-08T10:16:18.604Z,0.60
2023-05-08T10:19:24.029Z,0.80
2023-05-08T10:22:28.582Z,0.60
2023-05-08T10:25:37.886Z,1.10
2023-05-08T10:28:49.243Z,0.73
2023-05-08T10:31:55.498Z,0.60
2023-05-08T10:35:05.557Z,1.00
2023-05-08T10:38:09.678Z,0.60
2023-05-08T10:41:13.667Z,0.80
2023-05-08T10:44:16.630Z,0.62
2023-05-08T10:47:37.410Z,0.90
2023-05-08T10:51:01.682Z,0.90
2023-05-08T10:54:13.031Z,0.65
2023-05-08T11:01:03.697Z,0.60
2023-05-08T11:04:21.780Z,0.90
2023-05-08T11:07:50.552Z,0.52
2023-05-08T11:11:07.881Z,0.70
2023-05-08T11:14:20.226Z,1.10
2023-05-08T11:17:24.519Z,0.68
2023-05-08T11:20:55.940Z,0.47
2023-05-08T11:24:41.124Z,0.60
2023-05-08T11:27:50.662Z,0.60
2023-05-08T11:30:56.531Z,0.73
2023-05-08T11:34:00.173Z,1.17
2023-05-08T11:37:03.232Z,0.75
2023-05-08T11:43:38.304Z,0.50
2023-05-08T11:46:51.482Z,0.90
2023-05-08T11:49:55.768Z,0.70
2023-05-08T11:52:58.433Z,0.88
2023-05-08T11:56:01.177Z,0.90
2023-05-08T12:02:09.600Z,0.70
2023-05-08T12:05:12.754Z,0.70
2023-05-08T12:08:17.357Z,1.00
2023-05-08T12:11:26.692Z,0.60
2023-05-08T12:14:28.925Z,0.98
2023-05-08T12:17:31.837Z,0.88
2023-05-08T12:20:35.533Z,0.60
2023-05-08T12:23:41.078Z,0.77
2023-05-08T12:26:43.620Z,0.60
2023-05-08T12:29:46.809Z,0.75
2023-05-08T12:32:49.791Z,0.70
2023-05-08T12:36:16.188Z,0.65
2023-05-08T12:39:19.284Z,0.57
2023-05-08T12:45:29.502Z,0.95
2023-05-08T12:48:33.156Z,0.68
2023-05-08T12:51:36.762Z,0.88
2023-05-08T12:54:45.834Z,0.65
2023-05-08T12:57:54.141Z,0.82
2023-05-08T13:01:09.880Z,0.77
2023-05-08T13:04:12.506Z,0.68
2023-05-08T13:07:16.288Z,0.90
2023-05-08T13:10:20.218Z,1.02
2023-05-08T13:13:28.838Z,0.70
2023-05-08T13:16:41.442Z,0.82
2023-05-08T13:19:44.535Z,0.90
2023-05-08T13:22:46.938Z,0.57
2023-05-08T13:25:51.433Z,0.80
2023-05-08T13:28:56.265Z,0.70
2023-05-08T13:32:01.734Z,1.50
2023-05-08T13:35:04.622Z,1.10
2023-05-08T13:38:07.120Z,0.98
2023-05-08T13:41:09.392Z,1.20
2023-05-08T13:44:11.884Z,1.03
2023-05-08T13:47:14.279Z,1.12
2023-05-08T13:50:19.413Z,2.65
2023-05-08T13:53:21.629Z,1.17
2023-05-08T13:56:24.126Z,1.00
2023-05-08T13:59:27.198Z,0.90
2023-05-08T14:05:41.099Z,0.80
2023-05-08T14:08:46.599Z,1.30
2023-05-08T14:11:51.233Z,1.00
2023-05-08T14:14:53.425Z,0.50
2023-05-08T14:17:55.881Z,0.87
2023-05-08T14:20:58.090Z,1.10
2023-05-08T14:24:01.326Z,1.87
2023-05-08T14:27:05.914Z,1.20
2023-05-08T14:30:09.064Z,1.83
2023-05-08T14:33:11.366Z,1.02
2023-05-08T14:36:14.021Z,1.10
2023-05-08T14:39:16.166Z,0.80
2023-05-08T14:42:23.237Z,1.23
2023-05-08T14:45:25.959Z,0.88
2023-05-08T14:48:28.545Z,0.93
2023-05-08T14:51:31.654Z,0.85
2023-05-08T14:57:36.492Z,0.80
2023-05-08T15:00:41.884Z,1.45
2023-05-08T15:03:47.231Z,0.90
2023-05-08T15:06:49.871Z,0.95
2023-05-08T15:09:53.122Z,1.10
2023-05-08T15:12:55.600Z,0.85
2023-05-08T15:15:58.398Z,1.25
2023-05-08T15:19:03.698Z,1.15
2023-05-08T15:22:06.026Z,1.10
2023-05-08T15:25:08.583Z,1.83
2023-05-08T15:28:10.764Z,1.17
2023-05-08T15:31:13.366Z,1.20
2023-05-08T15:34:15.640Z,1.45
2023-05-08T15:37:18.148Z,1.25
2023-05-08T15:40:20.447Z,1.40
2023-05-08T15:43:22.933Z,1.13
2023-05-08T15:46:25.294Z,1.20
2023-05-08T15:49:27.847Z,1.23
2023-05-08T15:52:30.099Z,1.08
2023-05-08T15:55:32.931Z,1.42
2023-05-08T15:58:36.749Z,1.58
2023-05-08T16:01:41.665Z,1.20
2023-05-08T16:04:44.078Z,1.52
2023-05-08T16:07:46.245Z,1.45
2023-05-08T16:10:48.865Z,1.20
2023-05-08T16:13:51.018Z,1.30
2023-05-08T16:16:53.506Z,1.20
2023-05-08T16:19:55.723Z,1.62
2023-05-08T16:22:58.394Z,1.70
2023-05-08T16:26:00.689Z,1.45
2023-05-08T16:29:03.133Z,1.70
2023-05-08T16:32:05.624Z,1.48
2023-05-08T16:35:08.628Z,2.17
2023-05-08T16:38:10.924Z,2.23
2023-05-08T16:41:13.449Z,1.73
2023-05-08T16:44:15.783Z,1.65
2023-05-08T16:47:18.283Z,1.37
2023-05-08T16:50:20.456Z,2.50
2023-05-08T16:53:22.956Z,1.95
2023-05-08T16:56:25.230Z,1.75
2023-05-08T16:59:27.700Z,1.87
2023-05-08T17:02:30.546Z,2.25
2023-05-08T17:05:33.584Z,1.35
2023-05-08T17:08:35.910Z,2.17
2023-05-08T17:11:38.370Z,1.70
2023-05-08T17:14:42.737Z,2.03
2023-05-08T17:17:47.641Z,1.98
2023-05-08T17:20:50.861Z,2.33
2023-05-08T17:23:53.281Z,2.22
2023-05-08T17:26:55.704Z,2.10
2023-05-08T17:29:58.216Z,2.20
2023-05-08T17:33:00.579Z,2.08
2023-05-08T17:36:03.216Z,2.27
2023-05-08T17:39:05.613Z,1.98
2023-05-08T17:42:08.361Z,2.00
2023-05-08T17:45:10.952Z,1.95
2023-05-08T17:48:14.076Z,2.05
2023-05-08T17:51:16.336Z,2.17
2023-05-08T17:54:18.784Z,2.25
2023-05-08T17:57:21.003Z,1.92
2023-05-08T18:00:24.832Z,2.17
2023-05-08T18:03:27.639Z,2.62
2023-05-08T18:06:29.933Z,2.15
2023-05-08T18:09:32.897Z,2.55
2023-05-08T18:12:36.202Z,3.15
2023-05-08T18:15:42.231Z,2.70
2023-05-08T18:18:45.065Z,2.78
2023-05-08T18:21:47.504Z,2.80
2023-05-08T18:24:50.038Z,2.70
2023-05-08T18:27:52.591Z,2.73
2023-05-08T18:30:54.810Z,2.92
2023-05-08T18:33:57.293Z,2.80
2023-05-08T18:36:59.486Z,2.80
2023-05-08T18:40:02.073Z,2.37
2023-05-08T18:43:04.402Z,3.47
2023-05-08T18:46:12.538Z,3.30
2023-05-08T18:49:14.870Z,3.22
2023-05-08T18:52:17.280Z,3.08
2023-05-08T18:55:19.448Z,3.10
2023-05-08T18:58:22.111Z,3.95
2023-05-08T19:01:24.354Z,3.67
2023-05-08T19:04:26.916Z,2.75
2023-05-08T19:07:29.071Z,3.47
2023-05-08T19:10:31.546Z,3.25
2023-05-08T19:13:33.864Z,3.50
2023-05-08T19:16:36.403Z,3.95
2023-05-08T19:19:38.597Z,3.37
2023-05-08T19:22:41.049Z,2.80
2023-05-08T19:25:43.324Z,2.90
2023-05-08T19:28:45.969Z,4.50
2023-05-08T19:31:48.239Z,3.37
2023-05-08T19:34:50.815Z,3.17
2023-05-08T19:37:53.065Z,3.22
2023-05-08T19:40:57.549Z,4.05
2023-05-08T19:44:00.299Z,3.55
2023-05-08T19:47:04.284Z,3.07
2023-05-08T19:50:07.658Z,3.60
2023-05-08T19:53:10.199Z,3.83
2023-05-08T19:56:12.408Z,3.15
2023-05-08T19:59:14.886Z,3.35
2023-05-08T20:02:17.150Z,3.72
2023-05-08T20:05:22.920Z,3.12
2023-05-08T20:08:25.649Z,3.30
2023-05-08T20:11:28.112Z,3.15
2023-05-08T20:14:30.552Z,3.55
2023-05-08T20:17:33.041Z,3.00
2023-05-08T20:20:35.369Z,3.10
2023-05-08T20:23:39.551Z,3.72
2023-05-08T20:26:41.724Z,3.80
2023-05-08T20:29:45.210Z,3.55
2023-05-08T20:32:47.416Z,3.35
2023-05-08T20:35:49.899Z,3.10
2023-05-08T20:38:52.530Z,3.42
2023-05-08T20:41:55.030Z,4.53
2023-05-08T20:44:57.185Z,3.62
2023-05-08T20:47:59.905Z,3.15
2023-05-08T20:51:02.241Z,3.47
2023-05-08T20:54:04.751Z,3.47
2023-05-08T20:57:06.937Z,3.85
2023-05-08T21:00:09.852Z,2.45
2023-05-08T21:03:11.978Z,3.75
2023-05-08T21:06:14.400Z,3.35
2023-05-08T21:09:16.603Z,3.55
2023-05-08T21:12:19.021Z,3.97
2023-05-08T21:15:21.193Z,4.12
2023-05-08T21:18:23.733Z,3.58
2023-05-08T21:21:25.967Z,3.08
2023-05-08T21:24:28.445Z,3.25
2023-05-08T21:27:30.559Z,3.62
2023-05-08T21:30:32.971Z,4.28
2023-05-08T21:33:35.140Z,3.42
2023-05-08T21:36:37.541Z,4.18
2023-05-08T21:39:41.461Z,3.62
2023-05-08T21:42:43.910Z,3.28
2023-05-08T21:45:46.038Z,3.50
2023-05-08T21:48:48.567Z,3.62
2023-05-08T21:51:50.745Z,4.62
2023-05-08T21:54:53.150Z,3.80
2023-05-08T21:57:55.311Z,3.53
2023-05-08T22:00:58.770Z,4.10
2023-05-08T22:04:01.501Z,4.45
2023-05-08T22:07:03.731Z,4.75
2023-05-08T22:10:09.078Z,3.65
2023-05-08T22:13:12.571Z,3.62
2023-05-08T22:16:15.160Z,3.95
2023-05-08T22:19:17.596Z,3.65
2023-05-08T22:22:20.118Z,3.85
2023-05-08T22:25:22.631Z,3.15
2023-05-08T22:28:25.079Z,3.97
2023-05-08T22:31:27.334Z,3.50
2023-05-08T22:34:29.869Z,3.80
2023-05-08T22:37:32.053Z,3.67
2023-05-08T22:40:34.796Z,3.70
2023-05-08T22:43:37.286Z,3.17
2023-05-08T22:46:41.051Z,4.20
2023-05-08T22:49:43.498Z,3.70
2023-05-08T22:52:46.053Z,3.58
2023-05-08T22:55:48.237Z,3.60
2023-05-08T22:58:50.750Z,4.03
2023-05-08T23:01:53.576Z,3.60
2023-05-08T23:04:56.196Z,3.93
2023-05-08T23:07:58.430Z,4.18
2023-05-08T23:11:00.869Z,3.17
2023-05-08T23:14:02.997Z,4.20
2023-05-08T23:17:05.567Z,4.12
2023-05-08T23:20:08.507Z,4.82
2023-05-08T23:23:11.116Z,4.05
2023-05-08T23:26:13.337Z,3.62
2023-05-08T23:29:15.850Z,3.75
2023-05-08T23:32:17.980Z,3.60
2023-05-08T23:35:20.490Z,3.35
2023-05-08T23:38:23.473Z,4.12
2023-05-08T23:41:26.248Z,4.00
2023-05-08T23:44:28.525Z,3.65
2023-05-08T23:47:31.400Z,3.78
2023-05-08T23:50:33.552Z,3.67
2023-05-08T23:53:36.023Z,5.43
2023-05-08T23:56:38.204Z,4.10
2023-05-08T23:59:40.649Z,3.67
